Terminal Aerodrome Forecast
Issued by NWS

Home | Current Version | Previous Version | Text Only | Print | Product List | Glossary On
Versions: 1 2 3 4 5 6 7 8 9 10 11 12 13 14 15
000
FTUS41 KPBZ 260521
TAFZZV
TAF
KZZV 260521Z 2606/2706 00000KT P6SM SCT250
     FM261500 23008KT P6SM VCSH BKN050
     FM261700 26009KT 6SM -SHRA VCTS OVC035CB
     FM262100 28011KT P6SM VCSH BKN020
     FM262300 27008KT P6SM SCT060=

USA.gov is the U.S. government's official web portal to all federal, state and local government web resources and services.